createdAt,value
2018-01-17T00:00:36.134Z,92.6
2018-01-17T00:01:38.550Z,92.6
2018-01-17T00:02:41.260Z,92.6
2018-01-17T00:03:43.672Z,92.5
2018-01-17T00:04:46.084Z,92.4
2018-01-17T00:05:48.495Z,92.5
2018-01-17T00:06:50.907Z,92.5
2018-01-17T00:07:53.302Z,92.5
2018-01-17T00:08:55.991Z,92.5
2018-01-17T00:09:58.394Z,92.5
2018-01-17T00:11:00.801Z,92.6
2018-01-17T00:12:03.492Z,92.7
2018-01-17T00:13:05.902Z,92.7
2018-01-17T00:14:08.320Z,92.6
2018-01-17T00:15:10.723Z,92.7
2018-01-17T00:16:13.127Z,92.7
2018-01-17T00:17:15.548Z,92.6
2018-01-17T00:18:17.946Z,92.6
2018-01-17T00:19:20.351Z,92.5
2018-01-17T00:20:22.761Z,92.6
2018-01-17T00:21:25.169Z,92.6
2018-01-17T00:22:27.868Z,92.6
2018-01-17T00:23:30.564Z,92.5
2018-01-17T00:24:32.967Z,92.5
2018-01-17T00:25:35.378Z,92.6
2018-01-17T00:26:37.790Z,92.5
2018-01-17T00:27:40.192Z,92.5
2018-01-17T00:28:42.602Z,92.5
2018-01-17T00:29:45.585Z,92.5
2018-01-17T00:30:48.275Z,92.5
2018-01-17T00:31:50.695Z,92.7
2018-01-17T00:32:53.095Z,92.7
2018-01-17T00:33:55.512Z,92.7
2018-01-17T00:34:57.907Z,92.8
2018-01-17T00:36:00.312Z,92.8
2018-01-17T00:37:02.726Z,92.8
2018-01-17T00:38:05.135Z,92.8
2018-01-17T00:39:07.555Z,92.8
2018-01-17T00:40:09.996Z,92.8
2018-01-17T00:41:12.407Z,92.8
2018-01-17T00:42:14.817Z,92.8
2018-01-17T00:43:17.233Z,92.8
2018-01-17T00:44:19.634Z,92.8
2018-01-17T00:45:22.317Z,92.8
2018-01-17T00:46:24.727Z,92.8
2018-01-17T00:47:27.137Z,92.7
2018-01-17T00:48:29.830Z,92.5
2018-01-17T00:49:32.519Z,92.4
2018-01-17T00:50:34.928Z,92.4
2018-01-17T00:51:37.340Z,92.4
2018-01-17T00:52:39.754Z,92.5
2018-01-17T00:53:42.163Z,92.6
2018-01-17T00:54:44.566Z,92.5
2018-01-17T00:55:46.986Z,92.4
2018-01-17T00:56:49.393Z,92.5
2018-01-17T00:57:51.789Z,92.4
2018-01-17T00:58:54.211Z,92.4
2018-01-17T00:59:56.607Z,92.4
2018-01-17T01:00:59.017Z,92.4
2018-01-17T01:02:01.415Z,92.4
2018-01-17T01:03:04.108Z,92.5
2018-01-17T01:04:06.513Z,92.6
2018-01-17T01:05:08.925Z,92.7
2018-01-17T01:06:11.326Z,92.8
2018-01-17T01:07:13.746Z,92.8
2018-01-17T01:08:16.154Z,92.7
2018-01-17T01:09:18.558Z,92.7
2018-01-17T01:10:21.248Z,92.7
2018-01-17T01:11:23.649Z,92.8
2018-01-17T01:12:26.056Z,92.8
2018-01-17T01:13:28.462Z,92.8
2018-01-17T01:14:30.868Z,92.8
2018-01-17T01:15:33.549Z,92.7
2018-01-17T01:16:35.961Z,92.6
2018-01-17T01:17:38.367Z,92.6
2018-01-17T01:18:40.773Z,92.7
2018-01-17T01:19:43.222Z,92.7
2018-01-17T01:20:45.595Z,92.5
2018-01-17T01:21:48.287Z,92.5
2018-01-17T01:22:50.692Z,92.5
2018-01-17T01:23:53.101Z,92.4
2018-01-17T01:24:55.501Z,92.6
2018-01-17T01:25:57.916Z,92.5
2018-01-17T01:27:00.327Z,92.5
2018-01-17T01:28:02.731Z,92.6
2018-01-17T01:29:05.137Z,92.6
2018-01-17T01:30:07.545Z,92.6
2018-01-17T01:31:09.941Z,92.6
2018-01-17T01:32:12.352Z,92.6
2018-01-17T01:33:14.772Z,92.7
2018-01-17T01:34:17.461Z,92.7
2018-01-17T01:35:19.875Z,92.7
2018-01-17T01:36:22.282Z,92.7
2018-01-17T01:37:24.690Z,92.7
2018-01-17T01:38:27.103Z,92.8
2018-01-17T01:39:29.785Z,92.8
2018-01-17T01:40:32.180Z,92.7
2018-01-17T01:41:34.875Z,92.5
2018-01-17T01:42:37.283Z,92.7
2018-01-17T01:43:39.683Z,92.8
2018-01-17T01:44:42.087Z,92.8
2018-01-17T01:45:44.503Z,92.9
2018-01-17T01:46:46.909Z,92.9
2018-01-17T01:47:49.308Z,92.8
2018-01-17T01:48:51.721Z,92.8
2018-01-17T01:49:54.421Z,92.8
2018-01-17T01:50:56.827Z,92.8
2018-01-17T01:51:59.235Z,92.6
2018-01-17T01:53:01.913Z,92.6
2018-01-17T01:54:04.319Z,92.6
2018-01-17T01:55:06.746Z,92.6
2018-01-17T01:56:09.155Z,92.7
2018-01-17T01:57:11.560Z,92.5
2018-01-17T01:58:13.973Z,92.5
2018-01-17T01:59:16.377Z,92.4
2018-01-17T02:00:18.779Z,92.3
2018-01-17T02:01:21.188Z,92.4
2018-01-17T02:02:23.889Z,92.5
2018-01-17T02:03:26.588Z,92.5
2018-01-17T02:04:29.004Z,92.5
2018-01-17T02:05:31.406Z,92.5
2018-01-17T02:06:33.825Z,92.5
2018-01-17T02:07:36.226Z,92.5
2018-01-17T02:08:38.631Z,92.6
2018-01-17T02:09:41.045Z,92.5
2018-01-17T02:10:43.449Z,92.6
2018-01-17T02:11:45.858Z,92.7
2018-01-17T02:12:48.553Z,92.6
2018-01-17T02:13:50.962Z,92.5
2018-01-17T02:14:53.374Z,92.4
2018-01-17T02:15:55.785Z,92.5
2018-01-17T02:16:58.202Z,92.6
2018-01-17T02:18:00.899Z,92.7
2018-01-17T02:19:03.300Z,92.7
2018-01-17T02:20:05.719Z,92.7
2018-01-17T02:21:08.397Z,92.7
2018-01-17T02:22:10.806Z,92.6
2018-01-17T02:23:13.207Z,92.5
2018-01-17T02:24:15.620Z,92.5
2018-01-17T02:25:18.027Z,92.5
2018-01-17T02:26:20.454Z,92.6
2018-01-17T02:27:22.851Z,92.4
2018-01-17T02:28:25.262Z,92.2
2018-01-17T02:29:27.679Z,92.3
2018-01-17T02:30:30.357Z,92.4
2018-01-17T02:31:32.778Z,92.5
2018-01-17T02:32:35.187Z,92.5
2018-01-17T02:33:37.602Z,92.6
2018-01-17T02:34:40.013Z,92.6
2018-01-17T02:35:42.704Z,92.6
2018-01-17T02:36:45.103Z,92.7
2018-01-17T02:37:47.517Z,92.6
2018-01-17T02:38:50.208Z,92.6
2018-01-17T02:39:52.609Z,92.5
2018-01-17T02:40:55.019Z,92.5
2018-01-17T02:41:57.437Z,92.4
2018-01-17T02:42:59.847Z,92.4
2018-01-17T02:44:02.265Z,92.4
2018-01-17T02:45:04.663Z,92.5
2018-01-17T02:46:07.074Z,92.4
2018-01-17T02:47:09.490Z,92.4
2018-01-17T02:48:11.894Z,92.3
2018-01-17T02:49:14.308Z,92.3
2018-01-17T02:50:16.715Z,92.3
2018-01-17T02:51:19.119Z,92.3
2018-01-17T02:52:21.531Z,92.3
2018-01-17T02:53:23.947Z,92.3
2018-01-17T02:54:26.340Z,92.4
2018-01-17T02:55:28.757Z,92.4
2018-01-17T02:56:31.172Z,92.5
2018-01-17T02:57:33.866Z,92.5
2018-01-17T02:58:36.560Z,92.5
2018-01-17T02:59:39.250Z,92.5
2018-01-17T03:00:41.659Z,92.5
2018-01-17T03:01:44.080Z,92.4
2018-01-17T03:02:46.479Z,92.4
2018-01-17T03:03:48.877Z,92.5
2018-01-17T03:04:51.285Z,92.7
2018-01-17T03:05:53.694Z,92.7
2018-01-17T03:06:56.105Z,92.8
2018-01-17T03:07:58.797Z,92.7
2018-01-17T03:09:01.205Z,92.7
2018-01-17T03:10:03.617Z,92.6
2018-01-17T03:11:06.044Z,92.5
2018-01-17T03:12:08.450Z,92.5
2018-01-17T03:13:10.860Z,92.4
2018-01-17T03:14:13.263Z,92.4
2018-01-17T03:15:15.673Z,92.4
2018-01-17T03:16:18.353Z,92.4
2018-01-17T03:17:20.757Z,92.4
2018-01-17T03:18:23.182Z,92.3
2018-01-17T03:19:25.633Z,92.3
2018-01-17T03:20:28.045Z,92.3
2018-01-17T03:21:30.751Z,92.3
2018-01-17T03:22:33.162Z,92.4
2018-01-17T03:23:35.571Z,92.3
2018-01-17T03:24:37.988Z,92.2
2018-01-17T03:25:40.387Z,92.1
2018-01-17T03:26:42.798Z,92.2
2018-01-17T03:27:45.199Z,92.2
2018-01-17T03:28:47.609Z,92.2
2018-01-17T03:29:50.024Z,92.3
2018-01-17T03:30:52.428Z,92.4
2018-01-17T03:31:54.833Z,92.4
2018-01-17T03:32:57.244Z,92.3
2018-01-17T03:33:59.643Z,92.4
2018-01-17T03:35:02.357Z,92.5
2018-01-17T03:36:04.764Z,92.4
2018-01-17T03:37:07.167Z,92.3
2018-01-17T03:38:09.568Z,92.2
2018-01-17T03:39:11.978Z,92.3
2018-01-17T03:40:14.387Z,92.2
2018-01-17T03:41:16.788Z,92.1
2018-01-17T03:42:19.210Z,92.2
2018-01-17T03:43:21.614Z,92.3
2018-01-17T03:44:24.015Z,92.4
2018-01-17T03:45:26.702Z,92.4
2018-01-17T03:46:29.104Z,92.3
2018-01-17T03:47:31.511Z,92.2
2018-01-17T03:48:33.932Z,92.2
2018-01-17T03:49:36.338Z,92.3
2018-01-17T03:50:38.754Z,92.5
2018-01-17T03:51:41.172Z,92.3
2018-01-17T03:52:43.572Z,92.4
2018-01-17T03:53:45.987Z,92.4
2018-01-17T03:54:48.389Z,92.5
2018-01-17T03:55:50.794Z,92.5
2018-01-17T03:56:53.203Z,92.4
2018-01-17T03:57:55.609Z,92.5
2018-01-17T03:58:58.013Z,92.3
2018-01-17T04:00:00.714Z,92.3
2018-01-17T04:01:03.417Z,92.3
2018-01-17T04:02:06.117Z,92.4
2018-01-17T04:03:08.516Z,92.2
2018-01-17T04:04:10.932Z,92.3
2018-01-17T04:05:13.344Z,92.4
2018-01-17T04:06:15.751Z,92.5
2018-01-17T04:07:18.162Z,92.5
2018-01-17T04:08:20.569Z,92.5
2018-01-17T04:09:22.969Z,92.5
2018-01-17T04:10:25.392Z,92.4
2018-01-17T04:11:27.790Z,92.5
2018-01-17T04:12:30.205Z,92.4
2018-01-17T04:13:32.616Z,92.5
2018-01-17T04:14:35.025Z,92.4
2018-01-17T04:15:37.425Z,92.3
2018-01-17T04:16:40.408Z,92.3
2018-01-17T04:17:42.823Z,92.3
2018-01-17T04:18:45.232Z,92.3
2018-01-17T04:19:47.647Z,92.3
2018-01-17T04:20:50.050Z,92.3
2018-01-17T04:21:52.458Z,92.3
2018-01-17T04:22:54.872Z,92.2
2018-01-17T04:23:57.273Z,92.2
2018-01-17T04:24:59.961Z,92.3
2018-01-17T04:26:02.367Z,92.2
2018-01-17T04:27:04.762Z,92.1
2018-01-17T04:28:07.172Z,92.2
2018-01-17T04:29:09.579Z,92.1
2018-01-17T04:30:11.990Z,92.1
2018-01-17T04:31:14.691Z,92.2
2018-01-17T04:32:17.375Z,92.2
2018-01-17T04:33:19.785Z,92.3
2018-01-17T04:34:22.209Z,92.3
2018-01-17T04:35:24.620Z,92.4
2018-01-17T04:36:27.016Z,92.4
2018-01-17T04:37:29.424Z,92.4
2018-01-17T04:38:31.832Z,92.4
2018-01-17T04:39:34.239Z,92.5
2018-01-17T04:40:36.643Z,92.5
2018-01-17T04:41:39.336Z,92.5
2018-01-17T04:42:41.751Z,92.3
2018-01-17T04:43:44.431Z,92.3
2018-01-17T04:44:47.134Z,92.2
2018-01-17T04:45:49.543Z,92.2
2018-01-17T04:46:51.951Z,92.2
2018-01-17T04:47:54.356Z,92.4
2018-01-17T04:48:56.773Z,92.3
2018-01-17T04:49:59.175Z,92.3
2018-01-17T04:51:01.589Z,92.3
2018-01-17T04:52:03.995Z,92.4
2018-01-17T04:53:06.401Z,92.4
2018-01-17T04:54:08.818Z,92.5
2018-01-17T04:55:11.224Z,92.5
2018-01-17T04:56:14.208Z,92.6
2018-01-17T04:57:17.176Z,92.6
2018-01-17T04:58:19.853Z,92.5
2018-01-17T04:59:22.274Z,92.4
2018-01-17T05:00:25.242Z,92.3
2018-01-17T05:01:27.652Z,92.3
2018-01-17T05:02:30.062Z,92.4
2018-01-17T05:03:32.469Z,92.3
2018-01-17T05:04:34.875Z,92.2
2018-01-17T05:05:37.294Z,92.2
2018-01-17T05:06:39.980Z,92.3
2018-01-17T05:07:42.379Z,92.4
2018-01-17T05:08:44.787Z,92.4
2018-01-17T05:09:47.193Z,92.3
2018-01-17T05:10:49.605Z,92.3
2018-01-17T05:11:52.020Z,92.4
2018-01-17T05:12:54.709Z,92.5
2018-01-17T05:13:57.116Z,92.4
2018-01-17T05:14:59.520Z,92.5
2018-01-17T05:16:02.211Z,92.4
2018-01-17T05:17:04.624Z,92.3
2018-01-17T05:18:07.029Z,92.4
2018-01-17T05:19:09.445Z,92.3
2018-01-17T05:20:12.128Z,92.2
2018-01-17T05:21:14.543Z,92.2
2018-01-17T05:22:16.958Z,92.3
2018-01-17T05:23:19.364Z,92.3
2018-01-17T05:24:21.776Z,92.3
2018-01-17T05:25:24.180Z,92.2
2018-01-17T05:26:26.583Z,92.2
2018-01-17T05:27:28.998Z,92.2
2018-01-17T05:28:31.406Z,92.2
2018-01-17T05:29:33.818Z,92.2
2018-01-17T05:30:36.235Z,92.2
2018-01-17T05:31:38.924Z,92.1
2018-01-17T05:32:41.660Z,92
2018-01-17T05:33:44.362Z,92
2018-01-17T05:34:46.762Z,92
2018-01-17T05:35:49.177Z,92.1
2018-01-17T05:36:51.888Z,92.1
2018-01-17T05:37:54.294Z,92
2018-01-17T05:38:56.703Z,92.1
2018-01-17T05:39:59.402Z,92.1
2018-01-17T05:41:01.818Z,92.1
2018-01-17T05:42:04.223Z,92.1
2018-01-17T05:43:06.909Z,92.1
2018-01-17T05:44:09.318Z,92.2
2018-01-17T05:45:11.723Z,92.1
2018-01-17T05:46:14.130Z,92.2
2018-01-17T05:47:16.539Z,92.3
2018-01-17T05:48:19.233Z,92.3
2018-01-17T05:49:21.647Z,92.3
2018-01-17T05:50:24.356Z,92.2
2018-01-17T05:51:26.766Z,92.2
2018-01-17T05:52:29.174Z,92.2
2018-01-17T05:53:31.582Z,92.2
2018-01-17T05:54:33.988Z,92.2
2018-01-17T05:55:36.394Z,92.2
2018-01-17T05:56:38.811Z,92.2
2018-01-17T05:57:41.211Z,92.2
2018-01-17T05:58:43.623Z,92.3
2018-01-17T05:59:46.040Z,92.2
2018-01-17T06:00:48.435Z,92.1
2018-01-17T06:01:50.842Z,92.1
2018-01-17T06:02:53.253Z,92.1
2018-01-17T06:03:55.649Z,92.1
2018-01-17T06:04:58.073Z,92.1
2018-01-17T06:06:00.761Z,92.1
2018-01-17T06:07:03.163Z,92.2
2018-01-17T06:08:05.579Z,92.3
2018-01-17T06:09:07.983Z,92.2
2018-01-17T06:10:10.390Z,92.3
2018-01-17T06:11:12.797Z,92.3
2018-01-17T06:12:15.207Z,92.3
2018-01-17T06:13:17.612Z,92.2
2018-01-17T06:14:20.004Z,92.2
2018-01-17T06:15:22.408Z,92
2018-01-17T06:16:24.826Z,91.9
2018-01-17T06:17:27.522Z,92.1
2018-01-17T06:18:29.934Z,92.3
2018-01-17T06:19:32.341Z,92.3
2018-01-17T06:20:34.747Z,92.3
2018-01-17T06:21:37.163Z,92.4
2018-01-17T06:22:39.845Z,92.4
2018-01-17T06:23:42.242Z,92.3
2018-01-17T06:24:44.667Z,92.3
2018-01-17T06:25:47.074Z,92.4
2018-01-17T06:26:49.483Z,92.4
2018-01-17T06:27:52.172Z,92.3
2018-01-17T06:28:54.571Z,92.3
2018-01-17T06:29:56.970Z,92.2
2018-01-17T06:30:59.388Z,92.3
2018-01-17T06:32:02.068Z,92.3
2018-01-17T06:33:04.471Z,92.3
2018-01-17T06:34:06.890Z,92.4
2018-01-17T06:35:09.295Z,92.5
2018-01-17T06:36:11.997Z,92.5
2018-01-17T06:37:14.702Z,92.5
2018-01-17T06:38:17.091Z,92.5
2018-01-17T06:39:19.500Z,92.3
2018-01-17T06:40:21.898Z,92.2
2018-01-17T06:41:24.305Z,92.1
2018-01-17T06:42:26.709Z,92.1
2018-01-17T06:43:29.123Z,92.1
2018-01-17T06:44:31.534Z,92.1
2018-01-17T06:45:33.941Z,92.1
2018-01-17T06:46:36.349Z,92.3
2018-01-17T06:47:39.083Z,92.3
2018-01-17T06:48:41.496Z,92.3
2018-01-17T06:49:43.892Z,92.3
2018-01-17T06:50:46.582Z,92.3
2018-01-17T06:51:48.983Z,92.3
2018-01-17T06:52:51.387Z,92.3
2018-01-17T06:53:53.801Z,92.4
2018-01-17T06:54:56.194Z,92.4
2018-01-17T06:55:58.600Z,92.4
2018-01-17T06:57:01.014Z,92.3
2018-01-17T06:58:03.419Z,92.3
2018-01-17T06:59:06.116Z,92.4
2018-01-17T07:00:08.802Z,92.4
2018-01-17T07:01:11.488Z,92.4
2018-01-17T07:02:13.910Z,92.3
2018-01-17T07:03:16.324Z,92.3
2018-01-17T07:04:18.723Z,92.3
2018-01-17T07:05:21.137Z,92.3
2018-01-17T07:06:23.549Z,92.3
2018-01-17T07:07:25.957Z,92.2
2018-01-17T07:08:28.353Z,92.1
2018-01-17T07:09:30.771Z,92.1
2018-01-17T07:10:33.459Z,92.2
2018-01-17T07:11:35.855Z,92.2
2018-01-17T07:12:38.273Z,92.2
2018-01-17T07:13:40.678Z,92.3
2018-01-17T07:14:43.381Z,92.3
2018-01-17T07:15:45.796Z,92.3
2018-01-17T07:16:48.193Z,92.3
2018-01-17T07:17:50.601Z,92.2
2018-01-17T07:18:53.302Z,92.3
2018-01-17T07:19:55.989Z,92.4
2018-01-17T07:20:58.395Z,92.3
2018-01-17T07:22:00.795Z,92.3
2018-01-17T07:23:03.212Z,92.3
2018-01-17T07:24:05.620Z,92.4
2018-01-17T07:25:08.026Z,92.3
2018-01-17T07:26:10.427Z,92.4
2018-01-17T07:27:12.834Z,92.3
2018-01-17T07:28:15.243Z,92.3
2018-01-17T07:29:17.648Z,92.3
2018-01-17T07:30:20.054Z,92.3
2018-01-17T07:31:22.756Z,92.4
2018-01-17T07:32:25.726Z,92.4
2018-01-17T07:33:28.141Z,92.2
2018-01-17T07:34:30.551Z,92.2
2018-01-17T07:35:32.962Z,92.2
2018-01-17T07:36:35.365Z,92.2
2018-01-17T07:37:37.782Z,92.3
2018-01-17T07:38:40.196Z,92.3
2018-01-17T07:39:42.603Z,92.4
2018-01-17T07:40:45.018Z,92.2
2018-01-17T07:41:47.714Z,92.2
2018-01-17T07:42:50.116Z,92.2
2018-01-17T07:43:52.525Z,92.2
2018-01-17T07:44:54.941Z,92.1
2018-01-17T07:45:57.338Z,92.1
2018-01-17T07:46:59.757Z,92.1
2018-01-17T07:48:02.156Z,92.2
2018-01-17T07:49:04.845Z,92.1
2018-01-17T07:50:07.252Z,92.2
2018-01-17T07:51:09.941Z,92.3
2018-01-17T07:52:12.345Z,92.3
2018-01-17T07:53:14.762Z,92.2
2018-01-17T07:54:17.162Z,92.1
2018-01-17T07:55:19.859Z,92.1
2018-01-17T07:56:22.551Z,92
2018-01-17T07:57:24.962Z,91.9
2018-01-17T07:58:27.374Z,92
2018-01-17T07:59:29.792Z,92
2018-01-17T08:00:32.196Z,92
2018-01-17T08:01:34.614Z,92.1
2018-01-17T08:02:37.010Z,92.2
2018-01-17T08:03:39.422Z,92.1
2018-01-17T08:04:42.105Z,92.1
2018-01-17T08:05:44.516Z,92.1
2018-01-17T08:06:46.919Z,92.2
2018-01-17T08:07:49.332Z,92.2
2018-01-17T08:08:51.739Z,92.1
2018-01-17T08:09:54.156Z,92.1
2018-01-17T08:10:56.557Z,92
2018-01-17T08:11:58.959Z,91.9
2018-01-17T08:13:01.378Z,92
2018-01-17T08:14:04.065Z,92
2018-01-17T08:15:06.476Z,92.1
2018-01-17T08:16:09.307Z,92
2018-01-17T08:17:11.782Z,92.1
2018-01-17T08:18:14.475Z,92.1
2018-01-17T08:19:16.892Z,92.1
2018-01-17T08:20:19.284Z,92.1
2018-01-17T08:21:21.705Z,92
2018-01-17T08:22:24.160Z,91.9
2018-01-17T08:23:26.567Z,92
2018-01-17T08:24:29.027Z,91.9
2018-01-17T08:25:31.454Z,91.8
2018-01-17T08:26:34.029Z,91.9
2018-01-17T08:27:36.778Z,91.9
2018-01-17T08:28:39.187Z,91.9
2018-01-17T08:29:41.890Z,92
2018-01-17T08:30:44.296Z,92
2018-01-17T08:31:46.700Z,92
2018-01-17T08:32:49.112Z,91.9
2018-01-17T08:33:51.518Z,92
2018-01-17T08:34:53.917Z,92
2018-01-17T08:35:56.325Z,91.9
2018-01-17T08:36:58.733Z,91.8
2018-01-17T08:38:01.136Z,91.8
2018-01-17T08:39:03.831Z,91.8
2018-01-17T08:40:06.233Z,91.8
2018-01-17T08:41:08.926Z,91.8
2018-01-17T08:42:11.338Z,91.8
2018-01-17T08:43:13.747Z,91.8
2018-01-17T08:44:16.150Z,91.8
2018-01-17T08:45:18.866Z,91.8
2018-01-17T08:46:21.280Z,91.8
2018-01-17T08:47:23.687Z,91.8
2018-01-17T08:48:26.091Z,91.8
2018-01-17T08:49:28.502Z,91.9
2018-01-17T08:50:30.905Z,92
2018-01-17T08:51:33.331Z,92
2018-01-17T08:52:35.724Z,92
2018-01-17T08:53:38.148Z,92.1
2018-01-17T08:54:40.558Z,92
2018-01-17T08:55:42.964Z,92
2018-01-17T08:56:45.376Z,92.1
2018-01-17T08:57:47.787Z,92.1
2018-01-17T08:58:50.192Z,92.1
2018-01-17T08:59:52.613Z,92
2018-01-17T09:00:55.018Z,92
2018-01-17T09:01:57.426Z,91.9
2018-01-17T09:02:59.843Z,91.9
2018-01-17T09:04:02.248Z,91.8
2018-01-17T09:05:04.650Z,91.8
2018-01-17T09:06:07.368Z,91.8
2018-01-17T09:07:09.781Z,91.8
2018-01-17T09:08:12.183Z,91.6
2018-01-17T09:09:14.591Z,91.7
2018-01-17T09:10:17.001Z,91.7
2018-01-17T09:11:19.411Z,91.7
2018-01-17T09:12:22.100Z,91.5
2018-01-17T09:13:24.509Z,91.6
2018-01-17T09:14:26.913Z,91.8
2018-01-17T09:15:29.335Z,91.9
2018-01-17T09:16:31.744Z,91.9
2018-01-17T09:17:34.143Z,91.8
2018-01-17T09:18:36.552Z,91.8
2018-01-17T09:19:39.242Z,91.8
2018-01-17T09:20:41.653Z,91.8
2018-01-17T09:21:44.062Z,91.8
2018-01-17T09:22:46.469Z,91.9
2018-01-17T09:23:48.877Z,92
2018-01-17T09:24:51.290Z,92.1
2018-01-17T09:25:54.272Z,92
2018-01-17T09:26:56.669Z,92
2018-01-17T09:27:59.087Z,92
2018-01-17T09:29:01.499Z,92.1
2018-01-17T09:30:03.909Z,92
2018-01-17T09:31:06.312Z,91.9
2018-01-17T09:32:08.717Z,91.8
2018-01-17T09:33:11.120Z,91.7
2018-01-17T09:34:13.528Z,91.7
2018-01-17T09:35:15.931Z,91.8
2018-01-17T09:36:18.334Z,91.9
2018-01-17T09:37:20.758Z,91.9
2018-01-17T09:38:23.452Z,91.8
2018-01-17T09:39:25.848Z,91.6
2018-01-17T09:40:28.535Z,91.6
2018-01-17T09:41:30.952Z,91.7
2018-01-17T09:42:33.360Z,91.8
2018-01-17T09:43:35.770Z,91.9
2018-01-17T09:44:38.177Z,91.9
2018-01-17T09:45:40.585Z,91.9
2018-01-17T09:46:42.999Z,91.9
2018-01-17T09:47:45.412Z,91.8
2018-01-17T09:48:47.812Z,91.8
2018-01-17T09:49:50.221Z,91.7
2018-01-17T09:50:52.641Z,91.7
2018-01-17T09:51:55.044Z,91.8
2018-01-17T09:52:57.732Z,91.7
2018-01-17T09:54:00.146Z,91.7
2018-01-17T09:55:02.561Z,91.9
2018-01-17T09:56:04.972Z,92
2018-01-17T09:57:07.664Z,91.9
2018-01-17T09:58:10.066Z,91.8
2018-01-17T09:59:12.473Z,91.8
2018-01-17T10:00:14.889Z,91.8
2018-01-17T10:01:17.292Z,91.7
2018-01-17T10:02:19.700Z,91.7
2018-01-17T10:03:22.390Z,91.7
2018-01-17T10:04:25.372Z,91.9
2018-01-17T10:05:28.071Z,92.1
2018-01-17T10:06:30.768Z,92.2
2018-01-17T10:07:33.167Z,92.2
2018-01-17T10:08:35.581Z,92.2
2018-01-17T10:09:38.273Z,92.2
2018-01-17T10:10:40.677Z,92.1
2018-01-17T10:11:43.083Z,91.9
2018-01-17T10:12:45.497Z,91.8
2018-01-17T10:13:47.889Z,91.8
2018-01-17T10:14:50.313Z,92
2018-01-17T10:15:52.720Z,92.1
2018-01-17T10:16:55.123Z,92.1
2018-01-17T10:17:57.820Z,92.2
2018-01-17T10:19:00.224Z,92
2018-01-17T10:20:02.628Z,91.7
2018-01-17T10:21:05.041Z,91.7
2018-01-17T10:22:07.729Z,91.8
2018-01-17T10:23:10.145Z,91.8
2018-01-17T10:24:12.560Z,91.8
2018-01-17T10:25:15.266Z,91.8
2018-01-17T10:26:17.945Z,91.9
2018-01-17T10:27:20.354Z,92
2018-01-17T10:28:23.044Z,92.1
2018-01-17T10:29:25.460Z,92
2018-01-17T10:30:27.858Z,91.8
2018-01-17T10:31:30.265Z,91.8
2018-01-17T10:32:32.670Z,91.8
2018-01-17T10:33:35.087Z,91.8
2018-01-17T10:34:37.498Z,91.7
2018-01-17T10:35:39.907Z,91.8
2018-01-17T10:36:42.310Z,91.8
2018-01-17T10:37:44.720Z,91.8
2018-01-17T10:38:47.141Z,91.9
2018-01-17T10:39:49.551Z,91.9
2018-01-17T10:40:51.957Z,91.9
2018-01-17T10:41:54.932Z,91.9
2018-01-17T10:42:57.328Z,92
2018-01-17T10:44:00.025Z,92.1
2018-01-17T10:45:02.435Z,92
2018-01-17T10:46:04.840Z,91.9
2018-01-17T10:47:07.530Z,91.9
2018-01-17T10:48:09.946Z,91.8
2018-01-17T10:49:12.623Z,91.8
2018-01-17T10:50:15.035Z,91.7
2018-01-17T10:51:17.448Z,91.8
2018-01-17T10:52:19.856Z,91.8
2018-01-17T10:53:22.263Z,91.8
2018-01-17T10:54:24.664Z,91.8
2018-01-17T10:55:27.071Z,91.7
2018-01-17T10:56:29.757Z,91.7
2018-01-17T10:57:32.159Z,91.7
2018-01-17T10:58:34.560Z,91.8
2018-01-17T10:59:37.269Z,91.7
2018-01-17T11:00:39.678Z,91.7
2018-01-17T11:01:42.093Z,91.8
2018-01-17T11:02:44.501Z,91.6
2018-01-17T11:03:46.910Z,91.6
2018-01-17T11:04:49.316Z,91.6
2018-01-17T11:05:51.719Z,91.5
2018-01-17T11:06:54.135Z,91.7
2018-01-17T11:07:56.538Z,91.7
2018-01-17T11:08:58.951Z,91.8
2018-01-17T11:10:01.359Z,91.7
2018-01-17T11:11:04.086Z,91.7
2018-01-17T11:12:06.485Z,91.6
2018-01-17T11:13:08.909Z,91.7
2018-01-17T11:14:11.308Z,91.7
2018-01-17T11:15:13.720Z,91.6
2018-01-17T11:16:16.132Z,91.6
2018-01-17T11:17:18.540Z,91.7
2018-01-17T11:18:20.946Z,91.8
2018-01-17T11:19:23.360Z,92
2018-01-17T11:20:26.038Z,91.9
2018-01-17T11:21:28.456Z,91.9
2018-01-17T11:22:31.146Z,92
2018-01-17T11:23:33.828Z,92.1
2018-01-17T11:24:36.291Z,92
2018-01-17T11:25:38.646Z,91.8
2018-01-17T11:26:41.050Z,91.8
2018-01-17T11:27:43.453Z,91.8
2018-01-17T11:28:45.858Z,91.8
2018-01-17T11:29:48.265Z,92
2018-01-17T11:30:50.687Z,92.1
2018-01-17T11:31:53.093Z,92
2018-01-17T11:32:55.504Z,92.1
2018-01-17T11:33:57.906Z,92
2018-01-17T11:35:00.621Z,92
2018-01-17T11:36:03.025Z,91.9
2018-01-17T11:37:05.434Z,91.9
2018-01-17T11:38:07.842Z,92
2018-01-17T11:39:10.559Z,92
2018-01-17T11:40:12.958Z,92
2018-01-17T11:41:15.373Z,92
2018-01-17T11:42:17.775Z,92
2018-01-17T11:43:20.180Z,91.8
2018-01-17T11:44:22.589Z,91.8
2018-01-17T11:45:24.993Z,91.9
2018-01-17T11:46:27.393Z,92
2018-01-17T11:47:29.813Z,92.1
2018-01-17T11:48:32.498Z,92.1
2018-01-17T11:49:35.462Z,92.2
2018-01-17T11:50:37.868Z,92.1
2018-01-17T11:51:40.271Z,91.9
2018-01-17T11:52:42.686Z,91.8
2018-01-17T11:53:45.089Z,91.6
2018-01-17T11:54:47.489Z,91.6
2018-01-17T11:55:49.903Z,91.7
2018-01-17T11:56:52.323Z,91.6
2018-01-17T11:57:54.718Z,91.7
2018-01-17T11:58:57.134Z,91.9
2018-01-17T11:59:59.543Z,91.7
2018-01-17T12:01:01.967Z,91.7
2018-01-17T12:02:04.368Z,91.7
2018-01-17T12:03:07.063Z,91.5
2018-01-17T12:04:09.459Z,91.4
2018-01-17T12:05:11.872Z,91.6
2018-01-17T12:06:14.277Z,91.7
2018-01-17T12:07:16.688Z,91.7
2018-01-17T12:08:19.376Z,91.7
2018-01-17T12:09:22.092Z,91.7
2018-01-17T12:10:24.510Z,91.6
2018-01-17T12:11:26.902Z,91.7
2018-01-17T12:12:29.313Z,91.8
2018-01-17T12:13:31.731Z,91.8
2018-01-17T12:14:34.411Z,91.8
2018-01-17T12:15:36.820Z,91.8
2018-01-17T12:16:39.228Z,91.8
2018-01-17T12:17:41.625Z,91.9
2018-01-17T12:18:44.053Z,91.9
2018-01-17T12:19:46.453Z,92
2018-01-17T12:20:49.140Z,91.8
2018-01-17T12:21:51.546Z,91.6
2018-01-17T12:22:53.942Z,91.7
2018-01-17T12:23:56.635Z,91.8
2018-01-17T12:24:59.610Z,91.9
2018-01-17T12:26:02.015Z,91.8
2018-01-17T12:27:04.426Z,91.8
2018-01-17T12:28:06.837Z,91.9
2018-01-17T12:29:09.239Z,91.9
2018-01-17T12:30:11.663Z,91.9
2018-01-17T12:31:14.070Z,91.8
2018-01-17T12:32:16.475Z,91.9
2018-01-17T12:33:19.163Z,92
2018-01-17T12:34:22.264Z,91.9
2018-01-17T12:35:24.666Z,91.9
2018-01-17T12:36:27.161Z,91.9
2018-01-17T12:37:30.047Z,91.8
2018-01-17T12:38:32.467Z,91.8
2018-01-17T12:39:34.865Z,91.9
2018-01-17T12:40:37.276Z,92.1
2018-01-17T12:41:39.681Z,92
2018-01-17T12:42:42.817Z,92
2018-01-17T12:43:45.510Z,92
2018-01-17T12:44:47.919Z,92
2018-01-17T12:45:50.608Z,91.9
2018-01-17T12:46:53.026Z,92.1
2018-01-17T12:47:55.434Z,92.1
2018-01-17T12:48:58.124Z,92
2018-01-17T12:50:00.526Z,91.9
2018-01-17T12:51:02.935Z,91.9
2018-01-17T12:52:05.343Z,92
2018-01-17T12:53:08.052Z,92.1
2018-01-17T12:54:10.754Z,92
2018-01-17T12:55:13.428Z,92
2018-01-17T12:56:15.845Z,92.2
2018-01-17T12:57:18.252Z,92.1
2018-01-17T12:58:20.656Z,92.1
2018-01-17T12:59:23.066Z,92.2
2018-01-17T13:00:25.466Z,92.1
2018-01-17T13:01:27.895Z,92
2018-01-17T13:02:30.309Z,91.9
2018-01-17T13:03:33.011Z,92
2018-01-17T13:04:35.429Z,91.9
2018-01-17T13:05:37.838Z,91.8
2018-01-17T13:06:40.250Z,91.9
2018-01-17T13:07:42.668Z,92
2018-01-17T13:08:45.132Z,92
2018-01-17T13:09:47.543Z,91.9
2018-01-17T13:10:49.937Z,92
2018-01-17T13:11:52.352Z,91.9
2018-01-17T13:12:54.756Z,91.9
2018-01-17T13:13:57.170Z,91.8
2018-01-17T13:14:59.599Z,91.6
2018-01-17T13:16:02.001Z,91.6
2018-01-17T13:17:04.429Z,91.6
2018-01-17T13:18:06.888Z,91.7
2018-01-17T13:19:09.311Z,91.7
2018-01-17T13:20:11.714Z,91.8
2018-01-17T13:21:14.132Z,91.8
2018-01-17T13:22:16.549Z,91.8
2018-01-17T13:23:19.247Z,91.6
2018-01-17T13:24:21.663Z,91.6
2018-01-17T13:25:24.062Z,91.6
2018-01-17T13:26:26.473Z,91.6
2018-01-17T13:27:28.876Z,91.7
2018-01-17T13:28:31.284Z,91.8
2018-01-17T13:29:33.692Z,91.8
2018-01-17T13:30:36.094Z,91.7
2018-01-17T13:31:38.501Z,91.8
2018-01-17T13:32:40.923Z,91.8
2018-01-17T13:33:43.328Z,91.7
2018-01-17T13:34:45.731Z,91.9
2018-01-17T13:35:48.135Z,91.9
2018-01-17T13:36:50.562Z,92
2018-01-17T13:37:52.976Z,91.9
2018-01-17T13:38:55.373Z,91.9
2018-01-17T13:39:57.783Z,91.7
2018-01-17T13:41:00.194Z,91.7
2018-01-17T13:42:02.610Z,91.8
2018-01-17T13:43:05.027Z,91.7
2018-01-17T13:44:07.436Z,91.6
2018-01-17T13:45:09.834Z,91.6
2018-01-17T13:46:12.259Z,91.6
2018-01-17T13:47:14.663Z,91.6
2018-01-17T13:48:17.074Z,91.6
2018-01-17T13:49:19.478Z,91.7
2018-01-17T13:50:21.891Z,91.7
2018-01-17T13:51:24.315Z,91.7
2018-01-17T13:52:27.012Z,91.7
2018-01-17T13:53:29.424Z,91.7
2018-01-17T13:54:31.827Z,91.7
2018-01-17T13:55:34.239Z,91.8
2018-01-17T13:56:36.654Z,91.7